createdAt,value
2022-08-10T00:01:51.390Z,35.04
2022-08-10T00:04:21.505Z,35.19
2022-08-10T00:06:52.377Z,34.86
2022-08-10T00:09:20.721Z,35.05
2022-08-10T00:11:48.907Z,35.15
2022-08-10T00:14:17.052Z,35.64
2022-08-10T00:16:45.166Z,35.86
2022-08-10T00:19:16.728Z,36.04
2022-08-10T00:21:47.116Z,36.23
2022-08-10T00:24:17.169Z,36.19
2022-08-10T00:28:01.591Z,36.23
2022-08-10T00:29:33.955Z,36.41
2022-08-10T00:32:01.968Z,36.63
2022-08-10T00:34:30.666Z,37.13
2022-08-10T00:36:59.551Z,36.91
2022-08-10T00:39:29.709Z,37.25
2022-08-10T00:42:07.098Z,36.94
2022-08-10T00:44:38.545Z,36.80
2022-08-10T00:47:07.198Z,36.68
2022-08-10T00:49:45.780Z,37.31
2022-08-10T00:52:15.575Z,37.16
2022-08-10T00:54:45.391Z,37.19
2022-08-10T00:57:18.549Z,37.39
2022-08-10T00:59:57.948Z,37.61
2022-08-10T01:02:30.556Z,37.67
2022-08-10T01:05:01.999Z,37.34
2022-08-10T01:07:43.048Z,37.34
2022-08-10T01:10:21.844Z,37.57
2022-08-10T01:12:56.029Z,37.91
2022-08-10T01:15:29.443Z,37.57
2022-08-10T01:18:03.552Z,37.66
2022-08-10T01:20:38.854Z,38.01
2022-08-10T01:23:41.345Z,38.21
2022-08-10T01:26:31.105Z,38.03
2022-08-10T01:29:42.996Z,38.93
2022-08-10T01:32:14.786Z,38.02
2022-08-10T01:34:51.578Z,38.31
2022-08-10T01:37:25.456Z,38.33
2022-08-10T01:39:58.501Z,38.66
2022-08-10T01:42:29.385Z,39.40
2022-08-10T01:45:01.896Z,38.73
2022-08-10T01:47:51.930Z,39.06
2022-08-10T01:50:27.409Z,39.33
2022-08-10T01:53:01.872Z,38.87
2022-08-10T01:55:31.129Z,38.88
2022-08-10T01:58:04.196Z,39.04
2022-08-10T02:00:36.176Z,38.63
2022-08-10T02:03:06.883Z,38.96
2022-08-10T02:05:37.416Z,38.88
2022-08-10T02:08:08.129Z,39.21
2022-08-10T02:10:40.355Z,39.15
2022-08-10T02:13:10.244Z,38.79
2022-08-10T02:16:01.146Z,39.22
2022-08-10T02:18:31.884Z,39.78
2022-08-10T02:21:04.182Z,39.76
2022-08-10T02:23:34.345Z,39.95
2022-08-10T02:26:04.814Z,40.32
2022-08-10T02:28:34.653Z,40.48
2022-08-10T02:31:09.447Z,40.70
2022-08-10T02:33:56.902Z,40.63
2022-08-10T02:36:28.766Z,41.07
2022-08-10T02:39:00.971Z,41.29
2022-08-10T02:45:03.201Z,41.12
2022-08-10T02:45:22.328Z,41.66
2022-08-10T02:47:26.834Z,41.56
2022-08-10T02:50:03.207Z,41.19
2022-08-10T02:52:37.200Z,41.38
2022-08-10T02:55:17.960Z,41.15
2022-08-10T02:58:13.916Z,41.06
2022-08-10T03:00:45.417Z,40.73
2022-08-10T03:03:19.309Z,40.87
2022-08-10T03:05:50.138Z,41.22
2022-08-10T03:08:22.380Z,41.14
2022-08-10T03:10:51.556Z,41.44
2022-08-10T03:13:21.544Z,40.89
2022-08-10T03:15:52.369Z,41.14
2022-08-10T03:18:24.525Z,41.11
2022-08-10T03:20:54.916Z,41.61
2022-08-10T03:23:25.111Z,41.65
2022-08-10T03:25:57.742Z,42.02
2022-08-10T03:28:28.885Z,41.44
2022-08-10T03:30:58.589Z,41.64
2022-08-10T03:33:31.301Z,41.56
2022-08-10T03:36:40.156Z,41.62
2022-08-10T03:38:51.606Z,41.51
2022-08-10T03:41:29.643Z,41.69
2022-08-10T03:43:59.393Z,41.70
2022-08-10T03:46:27.638Z,41.74
2022-08-10T03:48:59.199Z,42.13
2022-08-10T03:51:29.847Z,42.10
2022-08-10T03:54:04.805Z,42.17
2022-08-10T03:56:36.966Z,42.81
2022-08-10T03:59:06.359Z,42.56
2022-08-10T04:02:45.904Z,42.81
2022-08-10T04:04:25.552Z,43.65
2022-08-10T04:06:55.805Z,43.24
2022-08-10T04:09:43.469Z,43.58
2022-08-10T04:12:14.589Z,43.51
2022-08-10T04:14:51.327Z,43.82
2022-08-10T04:17:56.846Z,44.31
2022-08-10T04:20:18.723Z,44.58
2022-08-10T04:22:49.607Z,43.85
2022-08-10T04:25:18.776Z,44.37
2022-08-10T04:27:47.727Z,44.71
2022-08-10T04:30:16.119Z,43.97
2022-08-10T04:32:46.620Z,44.01
2022-08-10T04:35:19.746Z,43.87
2022-08-10T04:37:50.441Z,44.33
2022-08-10T04:40:25.209Z,44.84
2022-08-10T04:43:03.389Z,44.94
2022-08-10T04:45:49.823Z,45.86
2022-08-10T04:48:42.867Z,46.14
2022-08-10T04:51:18.699Z,46.87
2022-08-10T04:54:04.022Z,47.32
2022-08-10T04:56:39.493Z,47.11
2022-08-10T04:59:09.063Z,47.47
2022-08-10T05:02:28.566Z,45.94
2022-08-10T05:04:34.421Z,45.62
2022-08-10T05:07:16.514Z,44.41
2022-08-10T05:10:01.194Z,44.03
2022-08-10T05:12:36.410Z,43.90
2022-08-10T05:15:07.560Z,43.61
2022-08-10T05:17:36.164Z,42.86
2022-08-10T05:20:07.469Z,43.85
2022-08-10T05:22:40.444Z,43.05
2022-08-10T05:25:11.011Z,42.87
2022-08-10T05:27:39.847Z,43.13
2022-08-10T05:30:09.575Z,43.06
2022-08-10T05:32:59.076Z,41.84
2022-08-10T05:35:27.203Z,41.91
2022-08-10T05:38:12.733Z,42.24
2022-08-10T05:40:46.586Z,41.59
2022-08-10T05:43:18.487Z,41.88
2022-08-10T05:46:16.812Z,42.51
2022-08-10T05:48:55.247Z,42.30
2022-08-10T05:51:24.148Z,42.11
2022-08-10T05:54:02.249Z,41.24
2022-08-10T05:56:56.259Z,40.63
2022-08-10T06:00:29.530Z,41.83
2022-08-10T06:02:32.001Z,40.07
2022-08-10T06:05:07.569Z,40.37
2022-08-10T06:07:39.935Z,40.77
2022-08-10T06:10:14.444Z,40.16
2022-08-10T06:13:26.761Z,39.94
2022-08-10T06:15:59.839Z,39.50
2022-08-10T06:18:28.162Z,39.51
2022-08-10T06:20:57.247Z,40.14
2022-08-10T06:23:27.191Z,39.85
2022-08-10T06:26:09.783Z,39.04
2022-08-10T06:29:00.207Z,38.71
2022-08-10T06:31:47.113Z,39.04
2022-08-10T06:34:20.649Z,38.98
2022-08-10T06:36:50.015Z,37.40
2022-08-10T06:39:32.913Z,37.74
2022-08-10T06:42:16.050Z,36.79
2022-08-10T06:44:52.307Z,36.04
2022-08-10T06:47:24.391Z,35.76
2022-08-10T06:49:59.973Z,36.00
2022-08-10T06:52:31.898Z,34.54
2022-08-10T06:55:05.171Z,35.12
2022-08-10T06:57:38.464Z,34.65
2022-08-10T07:00:08.756Z,34.55
2022-08-10T07:02:45.164Z,34.37
2022-08-10T07:05:18.511Z,33.09
2022-08-10T07:07:48.589Z,33.57
2022-08-10T07:10:20.402Z,33.18
2022-08-10T07:12:52.011Z,32.88
2022-08-10T07:15:21.442Z,33.08
2022-08-10T07:17:50.131Z,34.39
2022-08-10T07:20:19.743Z,31.81
2022-08-10T07:23:08.362Z,32.66
2022-08-10T07:25:40.559Z,32.45
2022-08-10T07:28:10.989Z,32.19
2022-08-10T07:30:41.836Z,32.75
2022-08-10T07:33:11.535Z,31.43
2022-08-10T07:35:43.769Z,31.50
2022-08-10T07:38:16.922Z,31.25
2022-08-10T07:40:46.234Z,30.65
2022-08-10T07:43:17.017Z,31.64
2022-08-10T07:45:47.588Z,30.88
2022-08-10T07:48:19.956Z,32.22
2022-08-10T07:50:49.202Z,30.65
2022-08-10T07:53:21.724Z,30.26
2022-08-10T07:56:07.450Z,30.85
2022-08-10T07:58:51.506Z,29.79
2022-08-10T08:01:24.299Z,29.55
2022-08-10T08:04:10.742Z,29.48
2022-08-10T08:06:42.462Z,29.21
2022-08-10T08:09:11.696Z,28.73
2022-08-10T08:11:40.571Z,29.41
2022-08-10T08:14:12.074Z,28.78
2022-08-10T08:16:43.203Z,28.38
2022-08-10T08:19:30.563Z,27.96
2022-08-10T08:24:05.949Z,28.33
2022-08-10T08:24:52.178Z,28.92
2022-08-10T08:27:22.034Z,28.81
2022-08-10T08:29:53.135Z,27.83
2022-08-10T08:32:23.931Z,28.38
2022-08-10T08:34:56.796Z,26.80
2022-08-10T08:38:30.167Z,26.72
2022-08-10T08:40:22.125Z,26.80
2022-08-10T08:43:10.285Z,26.58
2022-08-10T08:46:01.128Z,27.06
2022-08-10T08:49:00.005Z,27.25
2022-08-10T08:52:07.152Z,26.14
2022-08-10T08:54:49.304Z,26.11
2022-08-10T08:57:50.993Z,25.04
2022-08-10T09:00:20.167Z,25.54
2022-08-10T09:03:17.715Z,27.00
2022-08-10T09:05:58.393Z,25.35
2022-08-10T09:08:43.794Z,25.41
2022-08-10T09:11:28.623Z,26.63
2022-08-10T09:14:06.226Z,24.03
2022-08-10T09:16:43.687Z,24.58
2022-08-10T09:19:36.430Z,25.29
2022-08-10T09:22:17.953Z,24.51
2022-08-10T09:24:53.797Z,25.63
2022-08-10T09:27:24.111Z,24.40
2022-08-10T09:29:57.127Z,25.79
2022-08-10T09:36:19.688Z,24.19
2022-08-10T09:36:23.505Z,23.94
2022-08-10T09:38:34.723Z,23.47
2022-08-10T09:41:17.305Z,22.13
2022-08-10T09:43:55.380Z,22.07
2022-08-10T09:46:51.951Z,23.11
2022-08-10T09:49:53.471Z,23.07
2022-08-10T09:52:26.000Z,22.71
2022-08-10T09:55:01.094Z,21.23
2022-08-10T09:57:43.149Z,21.34
2022-08-10T10:00:16.415Z,21.38
2022-08-10T10:03:13.332Z,21.83
2022-08-10T10:05:52.602Z,21.26
2022-08-10T10:08:33.378Z,22.99
2022-08-10T10:11:08.635Z,22.49
2022-08-10T10:14:02.522Z,23.03
2022-08-10T10:16:44.550Z,21.75
2022-08-10T10:19:37.279Z,21.03
2022-08-10T10:22:26.353Z,21.47
2022-08-10T10:25:20.016Z,21.40
2022-08-10T10:27:59.116Z,22.19
2022-08-10T10:30:32.979Z,21.14
2022-08-10T10:33:14.579Z,22.28
2022-08-10T10:35:52.149Z,21.59
2022-08-10T10:38:22.477Z,21.43
2022-08-10T10:40:59.304Z,20.34
2022-08-10T10:43:40.727Z,20.44
2022-08-10T10:46:23.187Z,20.53
2022-08-10T10:49:01.337Z,20.75
2022-08-10T10:51:35.260Z,24.08
2022-08-10T10:54:10.479Z,20.07
2022-08-10T10:56:56.710Z,20.80
2022-08-10T10:59:55.817Z,20.17
2022-08-10T11:02:38.784Z,20.46
2022-08-10T11:05:19.656Z,21.23
2022-08-10T11:07:55.617Z,20.51
2022-08-10T11:10:32.689Z,20.70
2022-08-10T11:14:27.100Z,21.65
2022-08-10T11:16:09.041Z,20.96
2022-08-10T11:19:02.913Z,20.16
2022-08-10T11:21:44.182Z,19.52
2022-08-10T11:24:47.863Z,20.10
2022-08-10T11:27:22.066Z,21.85
2022-08-10T11:30:04.463Z,19.39
2022-08-10T11:32:43.834Z,18.31
2022-08-10T11:35:21.338Z,20.04
2022-08-10T11:38:31.710Z,20.78
2022-08-10T11:41:05.553Z,19.16
2022-08-10T11:43:57.993Z,18.53
2022-08-10T11:46:32.850Z,18.42
2022-08-10T11:49:09.517Z,19.17
2022-08-10T11:51:45.537Z,18.99
2022-08-10T11:54:25.344Z,19.18
2022-08-10T11:57:01.828Z,18.62
2022-08-10T11:59:50.901Z,19.05
2022-08-10T12:02:32.325Z,20.81
2022-08-10T12:05:05.973Z,18.70
2022-08-10T12:10:02.500Z,20.10
2022-08-10T12:10:26.211Z,19.03
2022-08-10T12:13:01.264Z,19.90
2022-08-10T12:15:36.791Z,20.06
2022-08-10T12:18:16.421Z,20.87
2022-08-10T12:20:50.748Z,17.91
2022-08-10T12:23:24.935Z,18.62
2022-08-10T12:25:59.402Z,17.93
2022-08-10T12:28:50.527Z,18.77
2022-08-10T12:31:26.004Z,18.52
2022-08-10T12:34:14.512Z,19.79
2022-08-10T12:36:47.916Z,19.65
2022-08-10T12:39:20.040Z,19.91
2022-08-10T12:41:57.188Z,19.07
2022-08-10T12:44:41.005Z,18.14
2022-08-10T12:47:17.786Z,18.29
2022-08-10T12:50:29.254Z,18.68
2022-08-10T12:52:52.876Z,18.95
2022-08-10T12:55:23.371Z,18.97
2022-08-10T12:57:55.392Z,19.53
2022-08-10T13:00:30.930Z,19.16
2022-08-10T13:03:01.516Z,19.59
2022-08-10T13:06:02.550Z,19.54
2022-08-10T13:08:40.900Z,19.58
2022-08-10T13:12:34.381Z,18.88
2022-08-10T13:14:09.816Z,17.34
2022-08-10T13:16:39.375Z,20.35
2022-08-10T13:19:08.685Z,18.41
2022-08-10T13:21:41.009Z,17.93
2022-08-10T13:24:12.954Z,17.79
2022-08-10T13:27:25.048Z,18.11
2022-08-10T13:29:40.088Z,17.69
2022-08-10T13:32:11.437Z,17.29
2022-08-10T13:34:46.267Z,16.75
2022-08-10T13:37:21.343Z,17.15
2022-08-10T13:39:58.743Z,16.74
2022-08-10T13:42:32.323Z,17.27
2022-08-10T13:45:11.980Z,17.67
2022-08-10T13:47:48.360Z,18.71
2022-08-10T13:50:35.220Z,18.65
2022-08-10T13:53:14.674Z,18.54
2022-08-10T13:55:54.351Z,18.19
2022-08-10T13:58:27.402Z,17.36
2022-08-10T14:00:57.719Z,18.16
2022-08-10T14:03:28.082Z,16.77
2022-08-10T14:05:59.349Z,16.59
2022-08-10T14:08:35.284Z,16.61
2022-08-10T14:11:11.029Z,15.24
2022-08-10T14:13:46.334Z,16.59
2022-08-10T14:16:15.227Z,16.85
2022-08-10T14:18:45.771Z,17.99
2022-08-10T14:21:14.597Z,16.49
2022-08-10T14:23:48.641Z,17.33
2022-08-10T14:26:25.029Z,18.90
2022-08-10T14:28:55.674Z,18.77
2022-08-10T14:31:30.227Z,18.49
2022-08-10T14:34:00.385Z,17.97
2022-08-10T14:36:34.408Z,18.57
2022-08-10T14:39:04.964Z,18.32
2022-08-10T14:42:02.974Z,17.75
2022-08-10T14:44:29.426Z,18.67
2022-08-10T14:47:05.184Z,18.67
2022-08-10T14:49:57.370Z,18.77
2022-08-10T14:52:28.265Z,19.66
2022-08-10T14:55:04.451Z,19.77
2022-08-10T14:58:16.675Z,19.56
2022-08-10T15:00:33.819Z,18.50
2022-08-10T15:03:10.940Z,19.19
2022-08-10T15:05:59.036Z,17.69
2022-08-10T15:08:36.690Z,18.23
2022-08-10T15:11:07.529Z,17.31
2022-08-10T15:13:37.151Z,18.61
2022-08-10T15:16:12.889Z,18.61
2022-08-10T15:18:58.448Z,18.09
2022-08-10T15:21:42.642Z,17.47
2022-08-10T15:24:36.373Z,18.08
2022-08-10T15:27:09.967Z,18.62
2022-08-10T15:29:57.244Z,18.13
2022-08-10T15:32:52.414Z,18.16
2022-08-10T15:35:42.177Z,19.48
2022-08-10T15:38:11.391Z,19.55
2022-08-10T15:40:53.983Z,19.56
2022-08-10T15:43:26.834Z,19.54
2022-08-10T15:46:01.553Z,18.76
2022-08-10T15:48:33.834Z,18.85
2022-08-10T15:51:06.338Z,19.55
2022-08-10T15:53:49.030Z,19.36
2022-08-10T15:56:27.846Z,19.57
2022-08-10T15:59:08.214Z,19.35
2022-08-10T16:02:14.287Z,20.39
2022-08-10T16:04:37.652Z,19.46
2022-08-10T16:07:09.790Z,20.07
2022-08-10T16:10:23.155Z,20.45
2022-08-10T16:12:35.325Z,20.26
2022-08-10T16:15:10.660Z,20.42
2022-08-10T16:17:55.360Z,20.26
2022-08-10T16:20:31.299Z,19.91
2022-08-10T16:23:03.137Z,19.99
2022-08-10T16:25:48.138Z,20.72
2022-08-10T16:28:23.899Z,20.62
2022-08-10T16:30:55.999Z,20.87
2022-08-10T16:33:52.589Z,20.55
2022-08-10T16:36:17.831Z,20.83
2022-08-10T16:38:49.367Z,20.23
2022-08-10T16:42:02.994Z,20.31
2022-08-10T16:44:12.493Z,20.24
2022-08-10T16:46:45.952Z,20.42
2022-08-10T16:49:15.967Z,20.61
2022-08-10T16:51:48.589Z,20.88
2022-08-10T16:54:24.791Z,20.98
2022-08-10T16:57:01.591Z,21.36
2022-08-10T16:59:31.531Z,21.47
2022-08-10T17:02:02.551Z,21.19
2022-08-10T17:04:32.197Z,22.17
2022-08-10T17:07:03.898Z,21.71
2022-08-10T17:09:35.057Z,21.97
2022-08-10T17:12:10.293Z,21.25
2022-08-10T17:14:40.658Z,21.52
2022-08-10T17:17:15.050Z,22.62
2022-08-10T17:19:45.671Z,21.79
2022-08-10T17:22:17.069Z,22.28
2022-08-10T17:24:48.729Z,22.67
2022-08-10T17:28:03.844Z,22.88
2022-08-10T17:30:15.851Z,22.83
2022-08-10T17:32:58.345Z,23.03
2022-08-10T17:35:29.820Z,22.57
2022-08-10T17:38:06.379Z,22.65
2022-08-10T17:40:42.084Z,22.43
2022-08-10T17:43:11.998Z,23.18
2022-08-10T17:45:46.218Z,23.42
2022-08-10T17:48:22.002Z,23.21
2022-08-10T17:50:52.247Z,23.00
2022-08-10T17:53:23.411Z,23.48
2022-08-10T17:55:56.133Z,23.13
2022-08-10T17:58:27.070Z,23.60
2022-08-10T18:00:57.464Z,23.38
2022-08-10T18:03:51.753Z,23.31
2022-08-10T18:06:20.413Z,23.74
2022-08-10T18:08:52.643Z,23.82
2022-08-10T18:11:23.216Z,23.96
2022-08-10T18:13:56.983Z,24.60
2022-08-10T18:16:29.439Z,24.93
2022-08-10T18:19:03.939Z,24.55
2022-08-10T18:21:34.138Z,24.91
2022-08-10T18:24:10.807Z,25.30
2022-08-10T18:26:44.109Z,25.74
2022-08-10T18:29:18.863Z,25.79
2022-08-10T18:31:50.054Z,25.89
2022-08-10T18:34:22.677Z,26.21
2022-08-10T18:36:52.967Z,26.08
2022-08-10T18:39:25.001Z,26.30
2022-08-10T18:42:00.624Z,26.71
2022-08-10T18:44:37.217Z,27.17
2022-08-10T18:47:10.550Z,27.43
2022-08-10T18:49:58.946Z,27.88
2022-08-10T18:52:32.344Z,28.61
2022-08-10T18:55:14.385Z,28.36
2022-08-10T18:58:27.421Z,28.97
2022-08-10T19:01:12.585Z,29.04
2022-08-10T19:03:58.495Z,29.54
2022-08-10T19:06:49.446Z,29.37
2022-08-10T19:09:46.604Z,30.80
2022-08-10T19:12:40.154Z,31.61
2022-08-10T19:15:19.704Z,32.18
2022-08-10T19:18:04.611Z,32.24
2022-08-10T19:20:42.266Z,32.82
2022-08-10T19:23:27.331Z,33.05
2022-08-10T19:26:42.325Z,33.93
2022-08-10T19:30:09.857Z,33.82
2022-08-10T19:32:29.543Z,34.59
2022-08-10T19:35:04.707Z,35.51
2022-08-10T19:37:41.984Z,35.01
2022-08-10T19:40:45.983Z,34.90
2022-08-10T19:43:20.813Z,34.90
2022-08-10T19:46:18.667Z,35.79
2022-08-10T19:48:53.345Z,35.51
2022-08-10T19:51:33.434Z,36.34
2022-08-10T19:54:08.858Z,36.85
2022-08-10T19:56:46.863Z,37.11
2022-08-10T20:00:17.559Z,36.90
2022-08-10T20:02:21.867Z,36.76
2022-08-10T20:04:57.749Z,37.00
2022-08-10T20:07:35.260Z,36.83
2022-08-10T20:10:12.189Z,37.33
2022-08-10T20:12:46.785Z,37.30
2022-08-10T20:15:28.560Z,37.93
2022-08-10T20:18:02.827Z,37.63
2022-08-10T20:20:36.640Z,37.44
2022-08-10T20:23:16.674Z,37.99
2022-08-10T20:25:48.325Z,38.14
2022-08-10T20:28:22.122Z,38.49
2022-08-10T20:30:53.861Z,38.31
2022-08-10T20:33:29.138Z,37.79
2022-08-10T20:36:04.235Z,37.35
2022-08-10T20:38:39.462Z,37.76
2022-08-10T20:41:17.421Z,38.31
2022-08-10T20:44:01.150Z,38.11
2022-08-10T20:46:36.531Z,38.50
2022-08-10T20:49:16.599Z,38.59
2022-08-10T20:51:59.510Z,39.07
2022-08-10T20:54:32.623Z,39.03
2022-08-10T20:57:55.192Z,39.63
2022-08-10T21:00:22.922Z,39.71
2022-08-10T21:03:21.101Z,40.11
2022-08-10T21:05:59.858Z,39.11
2022-08-10T21:08:40.423Z,39.71
2022-08-10T21:11:18.624Z,40.12
2022-08-10T21:14:03.578Z,40.91
2022-08-10T21:16:47.317Z,40.93
2022-08-10T21:19:53.983Z,41.50
2022-08-10T21:22:29.101Z,41.80
2022-08-10T21:25:03.126Z,41.16
2022-08-10T21:28:28.845Z,40.90
2022-08-10T21:31:15.667Z,40.92
2022-08-10T21:34:07.175Z,40.73
2022-08-10T21:36:41.334Z,41.44
2022-08-10T21:39:16.693Z,41.24
2022-08-10T21:42:14.848Z,41.22
2022-08-10T21:45:16.798Z,41.27
2022-08-10T21:48:18.684Z,40.66
2022-08-10T21:54:25.788Z,40.48
2022-08-10T21:57:19.773Z,39.58
2022-08-10T22:03:18.411Z,39.64
2022-08-10T22:06:09.219Z,39.58
2022-08-10T22:09:00.925Z,39.80
2022-08-10T22:11:50.071Z,40.27
2022-08-10T22:14:43.718Z,40.34
2022-08-10T22:18:01.263Z,40.41
2022-08-10T22:20:43.675Z,40.03
2022-08-10T22:23:57.686Z,40.50
2022-08-10T22:27:00.813Z,40.35
2022-08-10T22:29:52.913Z,40.46
2022-08-10T22:31:25.596Z,39.19
2022-08-10T22:31:28.552Z,40.83
2022-08-10T22:32:48.806Z,40.94
2022-08-10T22:36:00.738Z,41.14
2022-08-10T22:39:02.248Z,41.52
2022-08-10T22:42:06.834Z,41.07
2022-08-10T22:44:57.373Z,40.92
2022-08-10T22:47:46.160Z,40.78
2022-08-10T22:50:19.117Z,41.15
2022-08-10T22:52:58.856Z,41.51
2022-08-10T22:55:56.997Z,41.88
2022-08-10T22:58:42.484Z,41.81
2022-08-10T23:01:35.932Z,41.21
2022-08-10T23:04:09.078Z,41.20
2022-08-10T23:06:41.362Z,41.65
2022-08-10T23:09:11.937Z,41.97
2022-08-10T23:11:44.947Z,41.67
2022-08-10T23:14:16.230Z,41.97
2022-08-10T23:17:04.491Z,42.05
2022-08-10T23:19:39.566Z,41.71
2022-08-10T23:22:10.283Z,41.17
2022-08-10T23:24:43.926Z,41.25
2022-08-10T23:27:38.610Z,40.85
2022-08-10T23:30:10.856Z,40.77
2022-08-10T23:32:48.763Z,40.29
2022-08-10T23:36:12.973Z,40.47
2022-08-10T23:38:08.213Z,40.50
2022-08-10T23:40:37.493Z,41.05
2022-08-10T23:43:07.971Z,41.04
2022-08-10T23:45:53.921Z,41.06
2022-08-10T23:48:27.112Z,41.44
2022-08-10T23:50:59.677Z,42.04
2022-08-10T23:53:31.027Z,42.67
2022-08-10T23:56:06.863Z,42.11
2022-08-10T23:58:44.342Z,41.54
